sensor_id;sensor_type;location;lat;lon;timestamp;pressure;altitude;pressure_sealevel;temperature;humidity
24031;BME280;12240;51.142;22.486;2022-11-04T00:00:28;99351.38;;;4.19;100.00
24031;BME280;12240;51.142;22.486;2022-11-04T00:02:57;99343.59;;;4.17;100.00
24031;BME280;12240;51.142;22.486;2022-11-04T00:05:25;99345.84;;;4.11;100.00
24031;BME280;12240;51.142;22.486;2022-11-04T00:07:53;99324.34;;;4.04;100.00
24031;BME280;12240;51.142;22.486;2022-11-04T00:10:39;99349.91;;;4.15;100.00
24031;BME280;12240;51.142;22.486;2022-11-04T00:13:28;99336.22;;;4.10;100.00
24031;BME280;12240;51.142;22.486;2022-11-04T00:16:00;99332.25;;;4.04;100.00
24031;BME280;12240;51.142;22.486;2022-11-04T00:18:46;99330.34;;;4.06;100.00
24031;BME280;12240;51.142;22.486;2022-11-04T00:21:14;99333.47;;;4.11;100.00
24031;BME280;12240;51.142;22.486;2022-11-04T00:24:01;99324.78;;;4.22;100.00
24031;BME280;12240;51.142;22.486;2022-11-04T00:26:49;99283.41;;;4.11;100.00
24031;BME280;12240;51.142;22.486;2022-11-04T00:29:36;99281.75;;;4.10;100.00
24031;BME280;12240;51.142;22.486;2022-11-04T00:32:04;99320.06;;;4.49;100.00
24031;BME280;12240;51.142;22.486;2022-11-04T00:34:50;99272.34;;;4.30;100.00
24031;BME280;12240;51.142;22.486;2022-11-04T00:37:18;99259.13;;;4.19;100.00
24031;BME280;12240;51.142;22.486;2022-11-04T00:39:47;99306.56;;;4.53;100.00
24031;BME280;12240;51.142;22.486;2022-11-04T00:42:16;99286.53;;;4.51;100.00
24031;BME280;12240;51.142;22.486;2022-11-04T00:44:44;99259.44;;;4.38;100.00
24031;BME280;12240;51.142;22.486;2022-11-04T00:47:12;99244.53;;;4.37;100.00
24031;BME280;12240;51.142;22.486;2022-11-04T00:49:41;99294.09;;;4.66;100.00
24031;BME280;12240;51.142;22.486;2022-11-04T00:52:12;99238.34;;;4.38;100.00
24031;BME280;12240;51.142;22.486;2022-11-04T00:54:39;99280.56;;;4.60;100.00
24031;BME280;12240;51.142;22.486;2022-11-04T00:57:11;99273.00;;;4.55;100.00
24031;BME280;12240;51.142;22.486;2022-11-04T00:59:41;99268.84;;;4.64;100.00
24031;BME280;12240;51.142;22.486;2022-11-04T01:02:10;99279.97;;;4.67;100.00
24031;BME280;12240;51.142;22.486;2022-11-04T01:04:38;99264.63;;;4.61;100.00
24031;BME280;12240;51.142;22.486;2022-11-04T01:07:07;99264.38;;;4.64;100.00
24031;BME280;12240;51.142;22.486;2022-11-04T01:09:34;99253.22;;;4.50;100.00
24031;BME280;12240;51.142;22.486;2022-11-04T01:12:03;99175.38;;;4.11;100.00
24031;BME280;12240;51.142;22.486;2022-11-04T01:14:31;99260.91;;;4.64;100.00
24031;BME280;12240;51.142;22.486;2022-11-04T01:16:59;99250.94;;;4.56;100.00
24031;BME280;12240;51.142;22.486;2022-11-04T01:19:27;99254.22;;;4.71;100.00
24031;BME280;12240;51.142;22.486;2022-11-04T01:21:55;99224.69;;;4.55;100.00
24031;BME280;12240;51.142;22.486;2022-11-04T01:24:23;99191.63;;;4.40;100.00
24031;BME280;12240;51.142;22.486;2022-11-04T01:26:51;99236.94;;;4.67;100.00
24031;BME280;12240;51.142;22.486;2022-11-04T01:29:19;99176.41;;;4.43;100.00
24031;BME280;12240;51.142;22.486;2022-11-04T01:31:47;99208.78;;;4.67;100.00
24031;BME280;12240;51.142;22.486;2022-11-04T01:34:15;99225.44;;;4.79;100.00
24031;BME280;12240;51.142;22.486;2022-11-04T01:36:43;99135.16;;;4.20;100.00
24031;BME280;12240;51.142;22.486;2022-11-04T01:39:11;99095.50;;;4.00;100.00
24031;BME280;12240;51.142;22.486;2022-11-04T01:41:40;99187.06;;;4.53;100.00
24031;BME280;12240;51.142;22.486;2022-11-04T01:44:47;99211.41;;;4.67;100.00
24031;BME280;12240;51.142;22.486;2022-11-04T01:50:22;99204.31;;;4.68;100.00
24031;BME280;12240;51.142;22.486;2022-11-04T01:53:14;99211.53;;;4.66;100.00
24031;BME280;12240;51.142;22.486;2022-11-04T01:55:54;99150.63;;;4.36;100.00
24031;BME280;12240;51.142;22.486;2022-11-04T01:58:27;99205.28;;;4.67;100.00
24031;BME280;12240;51.142;22.486;2022-11-04T02:00:56;99201.09;;;4.64;100.00
24031;BME280;12240;51.142;22.486;2022-11-04T02:03:35;99195.31;;;4.59;100.00
24031;BME280;12240;51.142;22.486;2022-11-04T02:06:05;99143.44;;;4.27;100.00
24031;BME280;12240;51.142;22.486;2022-11-04T02:08:34;99128.09;;;4.21;100.00
24031;BME280;12240;51.142;22.486;2022-11-04T02:11:03;99186.00;;;4.55;100.00
24031;BME280;12240;51.142;22.486;2022-11-04T02:13:34;99135.63;;;4.25;100.00
24031;BME280;12240;51.142;22.486;2022-11-04T02:22:30;99178.44;;;4.51;100.00
24031;BME280;12240;51.142;22.486;2022-11-04T02:31:34;99168.34;;;4.56;100.00
24031;BME280;12240;51.142;22.486;2022-11-04T02:37:01;99171.63;;;4.48;100.00
24031;BME280;12240;51.142;22.486;2022-11-04T02:39:56;99131.81;;;4.07;100.00
24031;BME280;12240;51.142;22.486;2022-11-04T02:42:33;99138.50;;;4.00;100.00
24031;BME280;12240;51.142;22.486;2022-11-04T02:45:17;99171.94;;;4.22;100.00
24031;BME280;12240;51.142;22.486;2022-11-04T02:48:08;99164.72;;;4.13;100.00
24031;BME280;12240;51.142;22.486;2022-11-04T02:50:51;99151.53;;;4.13;100.00
24031;BME280;12240;51.142;22.486;2022-11-04T02:53:30;99144.13;;;4.07;100.00
24031;BME280;12240;51.142;22.486;2022-11-04T02:56:01;99108.63;;;3.89;100.00
24031;BME280;12240;51.142;22.486;2022-11-04T02:58:36;99100.28;;;3.95;100.00
24031;BME280;12240;51.142;22.486;2022-11-04T03:01:07;99135.88;;;4.22;100.00
24031;BME280;12240;51.142;22.486;2022-11-04T03:03:44;99052.72;;;3.74;100.00
24031;BME280;12240;51.142;22.486;2022-11-04T03:06:16;99138.75;;;4.30;100.00
24031;BME280;12240;51.142;22.486;2022-11-04T03:08:47;99141.41;;;4.30;100.00
24031;BME280;12240;51.142;22.486;2022-11-04T03:11:21;99139.00;;;4.27;100.00
24031;BME280;12240;51.142;22.486;2022-11-04T03:16:53;99122.13;;;4.30;100.00
24031;BME280;12240;51.142;22.486;2022-11-04T03:19:51;99145.84;;;4.41;100.00
24031;BME280;12240;51.142;22.486;2022-11-04T03:22:27;99130.50;;;4.35;100.00
24031;BME280;12240;51.142;22.486;2022-11-04T03:24:56;99136.00;;;4.32;100.00
24031;BME280;12240;51.142;22.486;2022-11-04T03:30:18;99123.09;;;4.40;100.00
24031;BME280;12240;51.142;22.486;2022-11-04T03:35:40;99123.56;;;4.45;100.00
24031;BME280;12240;51.142;22.486;2022-11-04T03:38:08;99121.78;;;4.45;100.00
24031;BME280;12240;51.142;22.486;2022-11-04T03:40:37;99111.31;;;4.44;100.00
24031;BME280;12240;51.142;22.486;2022-11-04T03:43:20;99117.31;;;4.46;100.00
24031;BME280;12240;51.142;22.486;2022-11-04T03:45:50;99117.78;;;4.51;100.00
24031;BME280;12240;51.142;22.486;2022-11-04T03:48:22;99123.53;;;4.56;100.00
24031;BME280;12240;51.142;22.486;2022-11-04T03:50:50;99114.94;;;4.54;100.00
24031;BME280;12240;51.142;22.486;2022-11-04T03:53:23;99112.03;;;4.57;100.00
24031;BME280;12240;51.142;22.486;2022-11-04T04:04:35;99114.78;;;4.66;100.00
24031;BME280;12240;51.142;22.486;2022-11-04T04:07:36;99096.69;;;4.62;100.00
24031;BME280;12240;51.142;22.486;2022-11-04T04:10:16;99116.94;;;4.72;100.00
24031;BME280;12240;51.142;22.486;2022-11-04T04:13:25;99092.81;;;4.77;100.00
24031;BME280;12240;51.142;22.486;2022-11-04T04:16:06;99078.44;;;4.70;100.00
24031;BME280;12240;51.142;22.486;2022-11-04T04:18:49;99063.47;;;4.70;100.00
24031;BME280;12240;51.142;22.486;2022-11-04T04:21:46;99085.63;;;4.90;100.00
24031;BME280;12240;51.142;22.486;2022-11-04T04:24:18;99055.81;;;4.67;100.00
24031;BME280;12240;51.142;22.486;2022-11-04T04:27:07;99099.28;;;4.95;100.00
24031;BME280;12240;51.142;22.486;2022-11-04T04:29:55;99041.78;;;4.67;100.00
24031;BME280;12240;51.142;22.486;2022-11-04T04:32:25;99088.47;;;4.98;100.00
24031;BME280;12240;51.142;22.486;2022-11-04T04:34:55;99092.28;;;5.05;100.00
24031;BME280;12240;51.142;22.486;2022-11-04T04:37:44;99041.63;;;4.80;100.00
24031;BME280;12240;51.142;22.486;2022-11-04T04:40:17;99049.38;;;4.92;100.00
24031;BME280;12240;51.142;22.486;2022-11-04T04:43:05;99082.66;;;5.15;100.00
24031;BME280;12240;51.142;22.486;2022-11-04T04:45:55;99073.75;;;5.16;100.00
24031;BME280;12240;51.142;22.486;2022-11-04T04:48:23;99075.91;;;5.22;100.00
24031;BME280;12240;51.142;22.486;2022-11-04T04:50:53;99070.22;;;5.27;100.00
24031;BME280;12240;51.142;22.486;2022-11-04T04:53:23;99066.38;;;5.31;100.00
24031;BME280;12240;51.142;22.486;2022-11-04T04:55:51;99070.34;;;5.36;100.00
24031;BME280;12240;51.142;22.486;2022-11-04T04:58:19;99082.16;;;5.42;100.00
24031;BME280;12240;51.142;22.486;2022-11-04T05:00:48;99077.00;;;5.40;100.00
24031;BME280;12240;51.142;22.486;2022-11-04T05:03:16;99068.38;;;5.38;100.00
24031;BME280;12240;51.142;22.486;2022-11-04T05:05:44;99073.03;;;5.46;100.00
24031;BME280;12240;51.142;22.486;2022-11-04T05:08:12;99023.25;;;5.21;100.00
24031;BME280;12240;51.142;22.486;2022-11-04T05:10:40;99059.38;;;5.41;100.00
24031;BME280;12240;51.142;22.486;2022-11-04T05:13:08;99071.94;;;5.48;100.00
24031;BME280;12240;51.142;22.486;2022-11-04T05:15:54;99067.47;;;5.49;100.00
24031;BME280;12240;51.142;22.486;2022-11-04T05:18:23;99053.34;;;5.50;100.00
24031;BME280;12240;51.142;22.486;2022-11-04T05:20:51;99058.34;;;5.53;100.00
24031;BME280;12240;51.142;22.486;2022-11-04T05:23:19;99036.00;;;5.36;100.00
24031;BME280;12240;51.142;22.486;2022-11-04T05:25:47;99015.53;;;5.29;100.00
24031;BME280;12240;51.142;22.486;2022-11-04T05:28:15;99020.66;;;5.30;100.00
24031;BME280;12240;51.142;22.486;2022-11-04T05:30:43;99067.84;;;5.55;100.00
24031;BME280;12240;51.142;22.486;2022-11-04T05:33:11;99024.47;;;5.37;100.00
24031;BME280;12240;51.142;22.486;2022-11-04T05:35:39;99061.19;;;5.61;100.00
24031;BME280;12240;51.142;22.486;2022-11-04T05:38:07;99068.72;;;5.65;100.00
24031;BME280;12240;51.142;22.486;2022-11-04T05:40:36;99040.25;;;5.48;100.00
24031;BME280;12240;51.142;22.486;2022-11-04T05:43:04;99050.25;;;5.65;100.00
24031;BME280;12240;51.142;22.486;2022-11-04T05:45:32;99015.38;;;5.51;100.00
24031;BME280;12240;51.142;22.486;2022-11-04T05:48:03;99057.38;;;5.74;100.00
24031;BME280;12240;51.142;22.486;2022-11-04T05:50:32;99054.63;;;5.76;100.00
24031;BME280;12240;51.142;22.486;2022-11-04T05:53:01;99055.78;;;5.83;100.00
24031;BME280;12240;51.142;22.486;2022-11-04T05:55:29;99056.94;;;5.90;100.00
24031;BME280;12240;51.142;22.486;2022-11-04T05:57:57;99039.94;;;5.83;100.00
24031;BME280;12240;51.142;22.486;2022-11-04T06:00:26;99055.84;;;5.93;100.00
24031;BME280;12240;51.142;22.486;2022-11-04T06:02:55;99022.47;;;5.92;100.00
24031;BME280;12240;51.142;22.486;2022-11-04T06:05:26;99047.50;;;5.97;100.00
24031;BME280;12240;51.142;22.486;2022-11-04T06:07:55;99036.81;;;5.99;100.00
24031;BME280;12240;51.142;22.486;2022-11-04T06:10:24;99044.75;;;5.99;100.00
24031;BME280;12240;51.142;22.486;2022-11-04T06:12:52;99020.78;;;5.90;100.00
24031;BME280;12240;51.142;22.486;2022-11-04T06:15:20;99035.44;;;6.04;100.00
24031;BME280;12240;51.142;22.486;2022-11-04T06:17:49;99028.38;;;6.05;100.00
24031;BME280;12240;51.142;22.486;2022-11-04T06:20:17;99035.75;;;6.11;100.00
24031;BME280;12240;51.142;22.486;2022-11-04T06:22:45;99032.03;;;6.13;100.00
24031;BME280;12240;51.142;22.486;2022-11-04T06:25:13;98966.31;;;5.78;100.00
24031;BME280;12240;51.142;22.486;2022-11-04T06:27:41;98985.50;;;5.92;100.00
24031;BME280;12240;51.142;22.486;2022-11-04T06:30:10;99034.13;;;6.19;100.00
24031;BME280;12240;51.142;22.486;2022-11-04T06:32:38;99038.19;;;6.23;100.00
24031;BME280;12240;51.142;22.486;2022-11-04T06:35:06;99032.19;;;6.21;100.00
24031;BME280;12240;51.142;22.486;2022-11-04T06:37:35;99030.13;;;6.25;100.00
24031;BME280;12240;51.142;22.486;2022-11-04T06:40:05;99004.31;;;6.08;100.00
24031;BME280;12240;51.142;22.486;2022-11-04T06:42:33;99032.66;;;6.36;100.00
24031;BME280;12240;51.142;22.486;2022-11-04T06:45:02;98995.00;;;6.13;100.00
24031;BME280;12240;51.142;22.486;2022-11-04T06:47:30;99028.78;;;6.40;100.00
24031;BME280;12240;51.142;22.486;2022-11-04T06:49:58;99027.94;;;6.39;100.00
24031;BME280;12240;51.142;22.486;2022-11-04T06:52:26;99029.09;;;6.46;100.00
24031;BME280;12240;51.142;22.486;2022-11-04T06:54:54;98989.06;;;6.21;100.00
24031;BME280;12240;51.142;22.486;2022-11-04T06:57:22;99031.59;;;6.48;100.00
24031;BME280;12240;51.142;22.486;2022-11-04T06:59:50;99036.06;;;6.57;100.00
24031;BME280;12240;51.142;22.486;2022-11-04T07:02:18;99024.50;;;6.58;100.00
24031;BME280;12240;51.142;22.486;2022-11-04T07:04:46;99021.59;;;6.61;100.00
24031;BME280;12240;51.142;22.486;2022-11-04T07:07:14;98972.84;;;6.44;100.00
24031;BME280;12240;51.142;22.486;2022-11-04T07:09:42;99007.13;;;6.74;100.00
24031;BME280;12240;51.142;22.486;2022-11-04T07:12:10;98916.31;;;6.36;100.00
24031;BME280;12240;51.142;22.486;2022-11-04T07:14:37;98963.28;;;6.72;100.00
24031;BME280;12240;51.142;22.486;2022-11-04T07:17:06;98943.22;;;6.69;100.00
24031;BME280;12240;51.142;22.486;2022-11-04T07:19:34;98948.94;;;6.84;100.00
24031;BME280;12240;51.142;22.486;2022-11-04T07:22:02;98967.59;;;7.01;100.00
24031;BME280;12240;51.142;22.486;2022-11-04T07:24:30;98967.59;;;7.11;100.00
24031;BME280;12240;51.142;22.486;2022-11-04T07:26:58;98967.03;;;7.17;100.00
24031;BME280;12240;51.142;22.486;2022-11-04T07:29:26;98957.81;;;7.21;100.00
24031;BME280;12240;51.142;22.486;2022-11-04T07:31:54;98968.41;;;7.31;100.00
24031;BME280;12240;51.142;22.486;2022-11-04T07:34:22;98965.03;;;7.38;100.00
24031;BME280;12240;51.142;22.486;2022-11-04T07:36:50;98965.28;;;7.45;100.00
24031;BME280;12240;51.142;22.486;2022-11-04T07:39:18;98960.00;;;7.45;100.00
24031;BME280;12240;51.142;22.486;2022-11-04T07:41:46;98960.00;;;7.54;100.00
24031;BME280;12240;51.142;22.486;2022-11-04T07:44:14;98947.03;;;7.51;100.00
24031;BME280;12240;51.142;22.486;2022-11-04T07:46:42;98951.59;;;7.59;100.00
24031;BME280;12240;51.142;22.486;2022-11-04T07:49:09;98940.28;;;7.66;100.00
24031;BME280;12240;51.142;22.486;2022-11-04T07:51:38;98938.19;;;7.60;100.00
24031;BME280;12240;51.142;22.486;2022-11-04T07:54:06;98933.44;;;7.73;100.00
24031;BME280;12240;51.142;22.486;2022-11-04T07:56:34;98886.53;;;7.47;100.00
24031;BME280;12240;51.142;22.486;2022-11-04T07:59:05;98947.88;;;7.88;100.00
24031;BME280;12240;51.142;22.486;2022-11-04T08:01:34;98905.00;;;7.66;100.00
24031;BME280;12240;51.142;22.486;2022-11-04T08:04:02;98900.25;;;7.69;100.00
24031;BME280;12240;51.142;22.486;2022-11-04T08:06:32;98892.00;;;7.72;100.00
24031;BME280;12240;51.142;22.486;2022-11-04T08:09:00;98907.97;;;7.90;100.00
24031;BME280;12240;51.142;22.486;2022-11-04T08:11:28;98927.06;;;8.20;100.00
24031;BME280;12240;51.142;22.486;2022-11-04T08:13:56;98927.59;;;8.34;100.00
24031;BME280;12240;51.142;22.486;2022-11-04T08:16:24;98922.44;;;8.50;100.00
24031;BME280;12240;51.142;22.486;2022-11-04T08:19:00;98919.66;;;8.51;100.00
24031;BME280;12240;51.142;22.486;2022-11-04T08:21:31;98902.44;;;8.55;100.00
24031;BME280;12240;51.142;22.486;2022-11-04T08:23:59;98890.75;;;8.66;100.00
24031;BME280;12240;51.142;22.486;2022-11-04T08:26:30;98868.31;;;8.60;100.00
24031;BME280;12240;51.142;22.486;2022-11-04T08:28:58;98904.88;;;8.84;100.00
24031;BME280;12240;51.142;22.486;2022-11-04T08:31:31;98851.31;;;8.71;100.00
24031;BME280;12240;51.142;22.486;2022-11-04T08:34:00;98896.69;;;9.20;100.00
24031;BME280;12240;51.142;22.486;2022-11-04T08:36:32;98851.56;;;9.03;100.00
24031;BME280;12240;51.142;22.486;2022-11-04T08:39:02;98886.50;;;9.33;100.00
24031;BME280;12240;51.142;22.486;2022-11-04T08:41:41;98858.56;;;9.29;100.00
24031;BME280;12240;51.142;22.486;2022-11-04T08:44:14;98838.50;;;9.09;100.00
24031;BME280;12240;51.142;22.486;2022-11-04T08:46:43;98885.88;;;9.22;100.00
24031;BME280;12240;51.142;22.486;2022-11-04T08:49:12;98874.38;;;9.13;100.00
24031;BME280;12240;51.142;22.486;2022-11-04T08:51:48;98876.88;;;9.15;100.00
24031;BME280;12240;51.142;22.486;2022-11-04T08:54:24;98874.63;;;9.20;100.00
24031;BME280;12240;51.142;22.486;2022-11-04T08:56:53;98859.31;;;9.22;100.00
24031;BME280;12240;51.142;22.486;2022-11-04T08:59:21;98779.63;;;8.88;100.00
24031;BME280;12240;51.142;22.486;2022-11-04T09:01:50;98861.22;;;9.29;100.00
24031;BME280;12240;51.142;22.486;2022-11-04T09:04:18;98830.09;;;9.22;100.00
24031;BME280;12240;51.142;22.486;2022-11-04T09:06:46;98845.03;;;9.40;100.00
24031;BME280;12240;51.142;22.486;2022-11-04T09:09:16;98882.13;;;9.92;100.00
24031;BME280;12240;51.142;22.486;2022-11-04T09:11:45;98847.50;;;10.09;100.00
24031;BME280;12240;51.142;22.486;2022-11-04T09:14:13;98795.78;;;9.70;100.00
24031;BME280;12240;51.142;22.486;2022-11-04T09:16:41;98806.50;;;9.86;100.00
24031;BME280;12240;51.142;22.486;2022-11-04T09:19:10;98825.16;;;10.02;100.00
24031;BME280;12240;51.142;22.486;2022-11-04T09:21:38;98760.44;;;9.70;100.00
24031;BME280;12240;51.142;22.486;2022-11-04T09:24:06;98824.72;;;10.15;100.00
24031;BME280;12240;51.142;22.486;2022-11-04T09:26:35;98831.09;;;10.30;100.00
24031;BME280;12240;51.142;22.486;2022-11-04T09:29:03;98831.94;;;10.38;100.00
24031;BME280;12240;51.142;22.486;2022-11-04T09:31:33;98810.59;;;10.22;100.00
24031;BME280;12240;51.142;22.486;2022-11-04T09:34:01;98804.63;;;10.44;100.00
24031;BME280;12240;51.142;22.486;2022-11-04T09:36:29;98771.53;;;10.55;100.00
24031;BME280;12240;51.142;22.486;2022-11-04T09:38:57;98750.91;;;10.41;100.00
24031;BME280;12240;51.142;22.486;2022-11-04T09:47:32;98807.28;;;10.93;100.00
24031;BME280;12240;51.142;22.486;2022-11-04T09:50:02;98800.13;;;11.01;100.00
24031;BME280;12240;51.142;22.486;2022-11-04T09:52:41;98759.53;;;10.83;100.00
24031;BME280;12240;51.142;22.486;2022-11-04T09:55:27;98762.97;;;11.08;100.00
24031;BME280;12240;51.142;22.486;2022-11-04T09:57:57;98768.88;;;11.42;100.00
24031;BME280;12240;51.142;22.486;2022-11-04T10:00:28;98714.03;;;11.09;100.00
24031;BME280;12240;51.142;22.486;2022-11-04T10:05:58;98764.59;;;11.71;100.00
24031;BME280;12240;51.142;22.486;2022-11-04T10:12:11;98730.88;;;11.87;100.00
24031;BME280;12240;51.142;22.486;2022-11-04T10:21:26;98720.91;;;12.26;100.00
24031;BME280;12240;51.142;22.486;2022-11-04T10:27:29;98737.09;;;12.24;100.00
24031;BME280;12240;51.142;22.486;2022-11-04T10:30:24;98730.81;;;12.40;100.00
24031;BME280;12240;51.142;22.486;2022-11-04T10:33:20;98719.59;;;12.44;100.00
24031;BME280;12240;51.142;22.486;2022-11-04T10:36:07;98716.69;;;12.68;100.00
24031;BME280;12240;51.142;22.486;2022-11-04T10:38:44;98705.63;;;12.71;100.00
24031;BME280;12240;51.142;22.486;2022-11-04T10:41:34;98694.75;;;12.58;100.00
24031;BME280;12240;51.142;22.486;2022-11-04T10:44:26;98688.25;;;12.38;100.00
24031;BME280;12240;51.142;22.486;2022-11-04T10:47:03;98645.66;;;11.85;100.00
24031;BME280;12240;51.142;22.486;2022-11-04T10:50:37;98693.31;;;12.33;100.00
24031;BME280;12240;51.142;22.486;2022-11-04T10:53:13;98681.63;;;12.34;100.00
24031;BME280;12240;51.142;22.486;2022-11-04T10:56:17;98684.47;;;12.84;100.00
24031;BME280;12240;51.142;22.486;2022-11-04T10:58:47;98672.00;;;12.62;100.00
24031;BME280;12240;51.142;22.486;2022-11-04T11:01:57;98679.63;;;12.14;100.00
24031;BME280;12240;51.142;22.486;2022-11-04T11:04:37;98664.81;;;11.89;100.00
24031;BME280;12240;51.142;22.486;2022-11-04T11:07:10;98655.44;;;11.93;100.00
24031;BME280;12240;51.142;22.486;2022-11-04T11:12:24;98615.88;;;11.51;100.00
24031;BME280;12240;51.142;22.486;2022-11-04T11:18:15;98603.66;;;11.34;100.00
24031;BME280;12240;51.142;22.486;2022-11-04T11:20:50;98630.63;;;11.61;100.00
24031;BME280;12240;51.142;22.486;2022-11-04T11:23:43;98636.94;;;11.68;100.00
24031;BME280;12240;51.142;22.486;2022-11-04T11:26:34;98620.16;;;11.60;100.00
24031;BME280;12240;51.142;22.486;2022-11-04T11:29:09;98621.00;;;11.52;100.00
24031;BME280;12240;51.142;22.486;2022-11-04T11:31:39;98584.38;;;11.24;100.00
24031;BME280;12240;51.142;22.486;2022-11-04T11:34:36;98623.53;;;11.54;100.00
24031;BME280;12240;51.142;22.486;2022-11-04T11:37:23;98631.47;;;11.62;100.00
24031;BME280;12240;51.142;22.486;2022-11-04T11:39:52;98584.41;;;11.46;100.00
24031;BME280;12240;51.142;22.486;2022-11-04T11:42:20;98621.94;;;11.90;100.00
24031;BME280;12240;51.142;22.486;2022-11-04T11:44:56;98611.13;;;11.92;100.00
24031;BME280;12240;51.142;22.486;2022-11-04T11:50:27;98630.06;;;12.19;100.00
24031;BME280;12240;51.142;22.486;2022-11-04T11:53:15;98610.75;;;12.46;100.00
24031;BME280;12240;51.142;22.486;2022-11-04T11:55:55;98548.03;;;12.13;100.00
24031;BME280;12240;51.142;22.486;2022-11-04T11:58:56;98596.38;;;13.20;100.00
24031;BME280;12240;51.142;22.486;2022-11-04T12:02:24;98606.63;;;13.52;99.45
24031;BME280;12240;51.142;22.486;2022-11-04T12:04:55;98591.19;;;13.33;98.50
24031;BME280;12240;51.142;22.486;2022-11-04T12:08:01;98583.09;;;13.27;97.80
24031;BME280;12240;51.142;22.486;2022-11-04T12:11:12;98590.69;;;13.09;96.80
24031;BME280;12240;51.142;22.486;2022-11-04T12:13:55;98561.25;;;13.23;96.33
24031;BME280;12240;51.142;22.486;2022-11-04T12:19:22;98536.59;;;12.92;97.18
24031;BME280;12240;51.142;22.486;2022-11-04T12:25:23;98592.44;;;12.58;98.37
24031;BME280;12240;51.142;22.486;2022-11-04T12:30:54;98560.28;;;12.22;99.38
24031;BME280;12240;51.142;22.486;2022-11-04T12:33:52;98586.66;;;12.40;100.00
24031;BME280;12240;51.142;22.486;2022-11-04T12:47:43;98544.63;;;13.28;98.86
24031;BME280;12240;51.142;22.486;2022-11-04T12:53:53;98541.16;;;13.48;95.44
24031;BME280;12240;51.142;22.486;2022-11-04T12:56:39;98564.50;;;14.03;97.87
24031;BME280;12240;51.142;22.486;2022-11-04T12:59:44;98557.66;;;14.22;95.77
24031;BME280;12240;51.142;22.486;2022-11-04T13:08:39;98544.25;;;13.73;93.82
24031;BME280;12240;51.142;22.486;2022-11-04T13:11:28;98509.75;;;13.36;95.01
24031;BME280;12240;51.142;22.486;2022-11-04T13:14:23;98548.56;;;13.46;96.48
24031;BME280;12240;51.142;22.486;2022-11-04T13:17:09;98510.97;;;12.83;96.32
24031;BME280;12240;51.142;22.486;2022-11-04T13:19:49;98535.19;;;13.11;99.15
24031;BME280;12240;51.142;22.486;2022-11-04T13:22:29;98571.72;;;13.39;98.43
24031;BME280;12240;51.142;22.486;2022-11-04T13:25:32;98563.56;;;13.68;97.32
24031;BME280;12240;51.142;22.486;2022-11-04T13:28:02;98561.75;;;13.69;96.35
24031;BME280;12240;51.142;22.486;2022-11-04T13:30:39;98552.81;;;13.41;96.05
24031;BME280;12240;51.142;22.486;2022-11-04T13:38:52;98524.22;;;13.20;98.45
24031;BME280;12240;51.142;22.486;2022-11-04T13:44:28;98571.09;;;13.23;99.42
24031;BME280;12240;51.142;22.486;2022-11-04T13:47:00;98573.44;;;12.97;100.00
24031;BME280;12240;51.142;22.486;2022-11-04T13:49:32;98537.19;;;12.29;100.00
24031;BME280;12240;51.142;22.486;2022-11-04T13:52:11;98586.91;;;12.59;100.00
24031;BME280;12240;51.142;22.486;2022-11-04T13:54:51;98586.06;;;12.15;100.00
24031;BME280;12240;51.142;22.486;2022-11-04T13:57:31;98539.44;;;11.89;100.00
24031;BME280;12240;51.142;22.486;2022-11-04T14:02:44;98570.03;;;12.15;100.00
24031;BME280;12240;51.142;22.486;2022-11-04T14:08:14;98554.97;;;11.85;100.00
24031;BME280;12240;51.142;22.486;2022-11-04T14:18:47;98583.31;;;11.86;100.00
24031;BME280;12240;51.142;22.486;2022-11-04T14:21:26;98588.19;;;11.83;100.00
24031;BME280;12240;51.142;22.486;2022-11-04T14:23:57;98539.84;;;11.32;100.00
24031;BME280;12240;51.142;22.486;2022-11-04T14:29:23;98552.41;;;11.24;100.00
24031;BME280;12240;51.142;22.486;2022-11-04T14:31:54;98595.25;;;11.45;100.00
24031;BME280;12240;51.142;22.486;2022-11-04T14:34:31;98575.84;;;11.28;100.00
24031;BME280;12240;51.142;22.486;2022-11-04T14:37:23;98589.34;;;11.27;100.00
24031;BME280;12240;51.142;22.486;2022-11-04T14:39:58;98554.44;;;10.91;100.00
24031;BME280;12240;51.142;22.486;2022-11-04T14:42:53;98616.44;;;11.08;100.00
24031;BME280;12240;51.142;22.486;2022-11-04T14:45:27;98567.84;;;10.67;100.00
24031;BME280;12240;51.142;22.486;2022-11-04T14:48:16;98563.09;;;10.46;100.00
24031;BME280;12240;51.142;22.486;2022-11-04T14:50:51;98600.66;;;10.68;100.00
24031;BME280;12240;51.142;22.486;2022-11-04T14:53:36;98611.97;;;10.62;100.00
24031;BME280;12240;51.142;22.486;2022-11-04T14:56:19;98617.31;;;10.53;100.00
24031;BME280;12240;51.142;22.486;2022-11-04T15:01:27;98625.50;;;10.36;100.00
24031;BME280;12240;51.142;22.486;2022-11-04T15:06:59;98621.41;;;10.09;100.00
24031;BME280;12240;51.142;22.486;2022-11-04T15:12:13;98587.78;;;9.76;100.00
24031;BME280;12240;51.142;22.486;2022-11-04T15:15:00;98631.19;;;10.01;100.00
24031;BME280;12240;51.142;22.486;2022-11-04T15:17:30;98648.28;;;9.98;100.00
24031;BME280;12240;51.142;22.486;2022-11-04T15:20:01;98646.13;;;9.94;100.00
24031;BME280;12240;51.142;22.486;2022-11-04T15:22:31;98641.63;;;9.86;100.00
24031;BME280;12240;51.142;22.486;2022-11-04T15:25:02;98626.00;;;9.67;100.00
24031;BME280;12240;51.142;22.486;2022-11-04T15:27:33;98644.47;;;9.77;100.00
24031;BME280;12240;51.142;22.486;2022-11-04T15:30:04;98641.44;;;9.64;100.00
24031;BME280;12240;51.142;22.486;2022-11-04T15:32:35;98655.22;;;9.75;100.00
24031;BME280;12240;51.142;22.486;2022-11-04T15:35:03;98657.59;;;9.78;100.00
24031;BME280;12240;51.142;22.486;2022-11-04T15:37:40;98660.06;;;9.80;100.00